sensor_id;sensor_type;location;lat;lon;timestamp;temperature;humidity
38480;DHT22;62333;51.980;5.934;2023-03-30T00:01:47;14.60;88.10
38480;DHT22;62333;51.980;5.934;2023-03-30T00:04:12;14.70;88.20
38480;DHT22;62333;51.980;5.934;2023-03-30T00:06:38;14.70;88.10
38480;DHT22;62333;51.980;5.934;2023-03-30T00:09:07;14.60;87.80
38480;DHT22;62333;51.980;5.934;2023-03-30T00:11:34;14.70;87.60
38480;DHT22;62333;51.980;5.934;2023-03-30T00:14:00;14.60;87.50
38480;DHT22;62333;51.980;5.934;2023-03-30T00:16:26;14.70;87.50
38480;DHT22;62333;51.980;5.934;2023-03-30T00:18:52;14.70;87.40
38480;DHT22;62333;51.980;5.934;2023-03-30T00:21:18;14.70;87.20
38480;DHT22;62333;51.980;5.934;2023-03-30T00:23:44;14.70;87.20
38480;DHT22;62333;51.980;5.934;2023-03-30T00:26:14;14.70;87.10
38480;DHT22;62333;51.980;5.934;2023-03-30T00:28:40;14.70;87.10
38480;DHT22;62333;51.980;5.934;2023-03-30T00:31:05;14.70;86.80
38480;DHT22;62333;51.980;5.934;2023-03-30T00:33:31;14.70;86.80
38480;DHT22;62333;51.980;5.934;2023-03-30T00:35:57;14.70;86.80
38480;DHT22;62333;51.980;5.934;2023-03-30T00:38:24;14.70;86.70
38480;DHT22;62333;51.980;5.934;2023-03-30T00:40:57;14.70;86.30
38480;DHT22;62333;51.980;5.934;2023-03-30T00:43:23;14.70;86.40
38480;DHT22;62333;51.980;5.934;2023-03-30T00:45:49;14.60;86.10
38480;DHT22;62333;51.980;5.934;2023-03-30T00:48:27;14.70;85.90
38480;DHT22;62333;51.980;5.934;2023-03-30T00:53:49;14.60;85.80
38480;DHT22;62333;51.980;5.934;2023-03-30T00:56:18;14.60;85.80
38480;DHT22;62333;51.980;5.934;2023-03-30T00:58:47;14.60;85.80
38480;DHT22;62333;51.980;5.934;2023-03-30T01:01:15;14.70;85.80
38480;DHT22;62333;51.980;5.934;2023-03-30T01:03:50;14.60;85.70
38480;DHT22;62333;51.980;5.934;2023-03-30T01:06:17;14.70;85.70
38480;DHT22;62333;51.980;5.934;2023-03-30T01:08:50;14.70;85.40
38480;DHT22;62333;51.980;5.934;2023-03-30T01:11:16;14.70;85.50
38480;DHT22;62333;51.980;5.934;2023-03-30T01:13:45;14.70;85.50
38480;DHT22;62333;51.980;5.934;2023-03-30T01:30:57;14.80;85.00
38480;DHT22;62333;51.980;5.934;2023-03-30T01:36:24;14.80;84.60
38480;DHT22;62333;51.980;5.934;2023-03-30T01:39:15;14.80;84.60
38480;DHT22;62333;51.980;5.934;2023-03-30T01:49:48;14.80;84.30
38480;DHT22;62333;51.980;5.934;2023-03-30T01:52:25;14.80;84.20
38480;DHT22;62333;51.980;5.934;2023-03-30T01:55:09;14.80;84.10
38480;DHT22;62333;51.980;5.934;2023-03-30T01:57:50;14.80;83.80
38480;DHT22;62333;51.980;5.934;2023-03-30T02:00:21;14.80;83.80
38480;DHT22;62333;51.980;5.934;2023-03-30T02:03:02;14.80;83.60
38480;DHT22;62333;51.980;5.934;2023-03-30T02:05:31;14.80;83.30
38480;DHT22;62333;51.980;5.934;2023-03-30T02:08:07;14.80;83.20
38480;DHT22;62333;51.980;5.934;2023-03-30T02:10:35;14.80;83.20
38480;DHT22;62333;51.980;5.934;2023-03-30T02:13:01;14.90;83.30
38480;DHT22;62333;51.980;5.934;2023-03-30T02:15:39;14.90;83.30
38480;DHT22;62333;51.980;5.934;2023-03-30T02:18:06;14.90;83.10
38480;DHT22;62333;51.980;5.934;2023-03-30T02:20:32;14.90;83.00
38480;DHT22;62333;51.980;5.934;2023-03-30T02:22:59;14.90;83.00
38480;DHT22;62333;51.980;5.934;2023-03-30T02:25:25;14.90;82.80
38480;DHT22;62333;51.980;5.934;2023-03-30T02:27:52;14.90;82.60
38480;DHT22;62333;51.980;5.934;2023-03-30T02:30:18;14.90;82.50
38480;DHT22;62333;51.980;5.934;2023-03-30T02:32:55;14.90;82.60
38480;DHT22;62333;51.980;5.934;2023-03-30T02:36:04;14.80;82.50
38480;DHT22;62333;51.980;5.934;2023-03-30T02:40:55;14.80;82.70
38480;DHT22;62333;51.980;5.934;2023-03-30T02:51:32;14.70;83.20
38480;DHT22;62333;51.980;5.934;2023-03-30T02:54:14;14.70;83.40
38480;DHT22;62333;51.980;5.934;2023-03-30T02:59:12;14.70;83.60
38480;DHT22;62333;51.980;5.934;2023-03-30T03:01:45;14.70;83.60
38480;DHT22;62333;51.980;5.934;2023-03-30T03:04:13;14.80;83.70
38480;DHT22;62333;51.980;5.934;2023-03-30T03:06:42;14.80;83.70
38480;DHT22;62333;51.980;5.934;2023-03-30T03:09:08;14.80;83.80
38480;DHT22;62333;51.980;5.934;2023-03-30T03:11:34;14.80;83.80
38480;DHT22;62333;51.980;5.934;2023-03-30T03:14:00;14.80;83.80
38480;DHT22;62333;51.980;5.934;2023-03-30T03:16:26;14.80;83.80
38480;DHT22;62333;51.980;5.934;2023-03-30T03:18:52;14.80;83.80
38480;DHT22;62333;51.980;5.934;2023-03-30T03:21:18;14.80;83.80
38480;DHT22;62333;51.980;5.934;2023-03-30T03:23:43;14.90;83.80
38480;DHT22;62333;51.980;5.934;2023-03-30T03:26:12;14.80;83.70
38480;DHT22;62333;51.980;5.934;2023-03-30T03:28:38;14.80;83.80
38480;DHT22;62333;51.980;5.934;2023-03-30T03:31:04;14.80;83.80
38480;DHT22;62333;51.980;5.934;2023-03-30T03:33:31;14.80;83.80
38480;DHT22;62333;51.980;5.934;2023-03-30T03:35:57;14.80;83.80
38480;DHT22;62333;51.980;5.934;2023-03-30T03:38:28;14.70;83.70
38480;DHT22;62333;51.980;5.934;2023-03-30T03:40:56;14.80;83.80
38480;DHT22;62333;51.980;5.934;2023-03-30T03:43:23;14.70;83.80
38480;DHT22;62333;51.980;5.934;2023-03-30T03:45:49;14.70;83.80
38480;DHT22;62333;51.980;5.934;2023-03-30T03:48:17;14.70;84.00
38480;DHT22;62333;51.980;5.934;2023-03-30T03:50:43;14.60;84.00
38480;DHT22;62333;51.980;5.934;2023-03-30T03:53:11;14.60;84.30
38480;DHT22;62333;51.980;5.934;2023-03-30T03:55:37;14.60;84.60
38480;DHT22;62333;51.980;5.934;2023-03-30T03:58:04;14.60;84.90
38480;DHT22;62333;51.980;5.934;2023-03-30T04:00:30;14.60;85.00
38480;DHT22;62333;51.980;5.934;2023-03-30T04:02:56;14.60;85.10
38480;DHT22;62333;51.980;5.934;2023-03-30T04:05:23;14.60;85.60
38480;DHT22;62333;51.980;5.934;2023-03-30T04:07:48;14.50;85.60
38480;DHT22;62333;51.980;5.934;2023-03-30T04:10:14;14.60;85.70
38480;DHT22;62333;51.980;5.934;2023-03-30T04:12:40;14.60;86.00
38480;DHT22;62333;51.980;5.934;2023-03-30T04:15:06;14.60;86.30
38480;DHT22;62333;51.980;5.934;2023-03-30T04:17:32;14.60;86.50
38480;DHT22;62333;51.980;5.934;2023-03-30T04:20:02;14.60;87.00
38480;DHT22;62333;51.980;5.934;2023-03-30T04:22:31;14.60;87.20
38480;DHT22;62333;51.980;5.934;2023-03-30T04:25:07;14.70;87.20
38480;DHT22;62333;51.980;5.934;2023-03-30T04:27:34;14.70;87.30
38480;DHT22;62333;51.980;5.934;2023-03-30T04:30:03;14.70;87.40
38480;DHT22;62333;51.980;5.934;2023-03-30T04:32:30;14.70;87.50
38480;DHT22;62333;51.980;5.934;2023-03-30T04:35:02;14.80;87.90
38480;DHT22;62333;51.980;5.934;2023-03-30T04:37:30;14.70;88.00
38480;DHT22;62333;51.980;5.934;2023-03-30T04:39:59;14.70;88.20
38480;DHT22;62333;51.980;5.934;2023-03-30T04:42:26;14.70;88.50
38480;DHT22;62333;51.980;5.934;2023-03-30T04:44:58;14.70;88.60
38480;DHT22;62333;51.980;5.934;2023-03-30T04:47:25;14.70;88.60
38480;DHT22;62333;51.980;5.934;2023-03-30T04:49:50;14.70;88.80
38480;DHT22;62333;51.980;5.934;2023-03-30T04:52:16;14.70;89.00
38480;DHT22;62333;51.980;5.934;2023-03-30T04:54:42;14.70;89.20
38480;DHT22;62333;51.980;5.934;2023-03-30T04:57:08;14.70;89.40
38480;DHT22;62333;51.980;5.934;2023-03-30T04:59:33;14.70;89.30
38480;DHT22;62333;51.980;5.934;2023-03-30T05:01:59;14.70;89.50
38480;DHT22;62333;51.980;5.934;2023-03-30T05:04:25;14.70;89.70
38480;DHT22;62333;51.980;5.934;2023-03-30T05:06:51;14.70;90.10
38480;DHT22;62333;51.980;5.934;2023-03-30T05:09:17;14.60;90.20
38480;DHT22;62333;51.980;5.934;2023-03-30T05:11:42;14.70;90.30
38480;DHT22;62333;51.980;5.934;2023-03-30T05:14:08;14.60;90.30
38480;DHT22;62333;51.980;5.934;2023-03-30T05:16:33;14.60;90.30
38480;DHT22;62333;51.980;5.934;2023-03-30T05:18:59;14.60;90.40
38480;DHT22;62333;51.980;5.934;2023-03-30T05:21:25;14.60;90.50
38480;DHT22;62333;51.980;5.934;2023-03-30T05:23:50;14.60;90.50
38480;DHT22;62333;51.980;5.934;2023-03-30T05:26:17;14.60;90.60
38480;DHT22;62333;51.980;5.934;2023-03-30T05:28:42;14.50;90.70
38480;DHT22;62333;51.980;5.934;2023-03-30T05:31:08;14.50;91.00
38480;DHT22;62333;51.980;5.934;2023-03-30T05:33:34;14.50;90.70
38480;DHT22;62333;51.980;5.934;2023-03-30T05:35:59;14.50;90.70
38480;DHT22;62333;51.980;5.934;2023-03-30T05:38:25;14.50;90.80
38480;DHT22;62333;51.980;5.934;2023-03-30T05:40:52;14.50;91.00
38480;DHT22;62333;51.980;5.934;2023-03-30T05:43:18;14.50;91.00
38480;DHT22;62333;51.980;5.934;2023-03-30T05:45:44;14.40;91.10
38480;DHT22;62333;51.980;5.934;2023-03-30T05:48:10;14.40;91.30
38480;DHT22;62333;51.980;5.934;2023-03-30T05:50:36;14.30;91.30
38480;DHT22;62333;51.980;5.934;2023-03-30T05:53:01;14.30;91.50
38480;DHT22;62333;51.980;5.934;2023-03-30T05:55:27;14.30;91.50
38480;DHT22;62333;51.980;5.934;2023-03-30T05:57:53;14.30;91.60
38480;DHT22;62333;51.980;5.934;2023-03-30T06:00:19;14.30;91.70
38480;DHT22;62333;51.980;5.934;2023-03-30T06:02:47;14.20;91.90
38480;DHT22;62333;51.980;5.934;2023-03-30T06:05:13;14.20;92.10
38480;DHT22;62333;51.980;5.934;2023-03-30T06:07:39;14.20;92.40
38480;DHT22;62333;51.980;5.934;2023-03-30T06:10:05;14.10;92.50
38480;DHT22;62333;51.980;5.934;2023-03-30T06:12:32;14.10;92.80
38480;DHT22;62333;51.980;5.934;2023-03-30T06:14:58;14.10;92.90
38480;DHT22;62333;51.980;5.934;2023-03-30T06:17:27;14.00;93.00
38480;DHT22;62333;51.980;5.934;2023-03-30T06:19:53;14.00;93.10
38480;DHT22;62333;51.980;5.934;2023-03-30T06:22:19;14.00;93.00
38480;DHT22;62333;51.980;5.934;2023-03-30T06:24:45;14.00;93.10
38480;DHT22;62333;51.980;5.934;2023-03-30T06:27:11;14.10;93.10
38480;DHT22;62333;51.980;5.934;2023-03-30T06:29:37;14.00;93.20
38480;DHT22;62333;51.980;5.934;2023-03-30T06:32:03;14.10;93.20
38480;DHT22;62333;51.980;5.934;2023-03-30T06:34:29;14.10;93.10
38480;DHT22;62333;51.980;5.934;2023-03-30T06:36:55;14.10;93.20
38480;DHT22;62333;51.980;5.934;2023-03-30T06:39:21;14.10;93.20
38480;DHT22;62333;51.980;5.934;2023-03-30T06:41:47;14.10;93.20
38480;DHT22;62333;51.980;5.934;2023-03-30T06:44:13;14.10;93.40
38480;DHT22;62333;51.980;5.934;2023-03-30T06:46:42;14.10;93.30
38480;DHT22;62333;51.980;5.934;2023-03-30T06:49:09;14.10;93.30
38480;DHT22;62333;51.980;5.934;2023-03-30T06:51:35;14.10;93.30
38480;DHT22;62333;51.980;5.934;2023-03-30T06:54:01;14.10;93.30
38480;DHT22;62333;51.980;5.934;2023-03-30T06:56:27;14.10;93.30
38480;DHT22;62333;51.980;5.934;2023-03-30T06:58:52;14.10;93.60
38480;DHT22;62333;51.980;5.934;2023-03-30T07:01:18;14.10;93.40
38480;DHT22;62333;51.980;5.934;2023-03-30T07:03:44;14.10;93.30
38480;DHT22;62333;51.980;5.934;2023-03-30T07:06:10;14.10;93.20
38480;DHT22;62333;51.980;5.934;2023-03-30T07:08:37;14.10;92.90
38480;DHT22;62333;51.980;5.934;2023-03-30T07:11:04;14.10;92.70
38480;DHT22;62333;51.980;5.934;2023-03-30T07:13:31;14.10;92.60
38480;DHT22;62333;51.980;5.934;2023-03-30T07:15:57;14.10;92.50
38480;DHT22;62333;51.980;5.934;2023-03-30T07:18:23;14.10;92.40
38480;DHT22;62333;51.980;5.934;2023-03-30T07:20:49;14.10;92.40
38480;DHT22;62333;51.980;5.934;2023-03-30T07:23:16;14.10;92.30
38480;DHT22;62333;51.980;5.934;2023-03-30T07:25:43;14.10;92.40
38480;DHT22;62333;51.980;5.934;2023-03-30T07:28:08;14.20;92.50
38480;DHT22;62333;51.980;5.934;2023-03-30T07:30:35;14.20;92.50
38480;DHT22;62333;51.980;5.934;2023-03-30T07:33:01;14.40;92.50
38480;DHT22;62333;51.980;5.934;2023-03-30T07:35:27;14.60;92.50
38480;DHT22;62333;51.980;5.934;2023-03-30T07:37:53;14.80;92.40
38480;DHT22;62333;51.980;5.934;2023-03-30T07:40:19;15.00;92.10
38480;DHT22;62333;51.980;5.934;2023-03-30T07:42:46;15.20;91.80
38480;DHT22;62333;51.980;5.934;2023-03-30T07:45:12;15.30;91.60
38480;DHT22;62333;51.980;5.934;2023-03-30T07:47:38;15.40;91.40
38480;DHT22;62333;51.980;5.934;2023-03-30T07:50:05;15.50;91.00
38480;DHT22;62333;51.980;5.934;2023-03-30T07:52:31;15.60;90.70
38480;DHT22;62333;51.980;5.934;2023-03-30T07:54:57;15.50;90.30
38480;DHT22;62333;51.980;5.934;2023-03-30T07:57:23;15.50;90.20
38480;DHT22;62333;51.980;5.934;2023-03-30T07:59:49;15.50;90.10
38480;DHT22;62333;51.980;5.934;2023-03-30T08:02:15;15.50;89.70
38480;DHT22;62333;51.980;5.934;2023-03-30T08:04:41;15.40;88.80
38480;DHT22;62333;51.980;5.934;2023-03-30T08:07:08;15.30;88.70
38480;DHT22;62333;51.980;5.934;2023-03-30T08:09:34;15.30;88.80
38480;DHT22;62333;51.980;5.934;2023-03-30T08:12:00;15.30;88.90
38480;DHT22;62333;51.980;5.934;2023-03-30T08:14:26;15.30;88.30
38480;DHT22;62333;51.980;5.934;2023-03-30T08:16:55;15.20;88.50
38480;DHT22;62333;51.980;5.934;2023-03-30T08:19:23;15.30;88.40
38480;DHT22;62333;51.980;5.934;2023-03-30T08:21:49;15.30;88.10
38480;DHT22;62333;51.980;5.934;2023-03-30T08:24:15;15.30;87.80
38480;DHT22;62333;51.980;5.934;2023-03-30T08:26:41;15.30;87.70
38480;DHT22;62333;51.980;5.934;2023-03-30T08:29:07;15.30;87.50
38480;DHT22;62333;51.980;5.934;2023-03-30T08:31:32;15.30;87.30
38480;DHT22;62333;51.980;5.934;2023-03-30T08:33:59;15.30;87.20
38480;DHT22;62333;51.980;5.934;2023-03-30T08:36:25;15.40;87.20
38480;DHT22;62333;51.980;5.934;2023-03-30T08:38:53;15.50;86.70
38480;DHT22;62333;51.980;5.934;2023-03-30T08:44:00;15.70;86.30
38480;DHT22;62333;51.980;5.934;2023-03-30T08:46:28;15.80;85.60
38480;DHT22;62333;51.980;5.934;2023-03-30T08:48:57;16.00;85.10
38480;DHT22;62333;51.980;5.934;2023-03-30T08:51:29;16.10;84.70
38480;DHT22;62333;51.980;5.934;2023-03-30T08:54:03;16.10;84.80
38480;DHT22;62333;51.980;5.934;2023-03-30T08:57:09;16.10;84.30
38480;DHT22;62333;51.980;5.934;2023-03-30T08:59:57;16.10;84.10
38480;DHT22;62333;51.980;5.934;2023-03-30T09:02:34;16.00;84.00
38480;DHT22;62333;51.980;5.934;2023-03-30T09:05:14;15.90;84.00
38480;DHT22;62333;51.980;5.934;2023-03-30T09:10:29;15.80;84.00
38480;DHT22;62333;51.980;5.934;2023-03-30T09:12:58;15.80;83.90
38480;DHT22;62333;51.980;5.934;2023-03-30T09:18:00;15.70;83.50
38480;DHT22;62333;51.980;5.934;2023-03-30T09:20:29;15.70;83.80
38480;DHT22;62333;51.980;5.934;2023-03-30T09:22:58;15.70;84.10
38480;DHT22;62333;51.980;5.934;2023-03-30T09:25:37;15.60;84.50
38480;DHT22;62333;51.980;5.934;2023-03-30T09:30:43;15.40;86.90
38480;DHT22;62333;51.980;5.934;2023-03-30T09:33:39;15.30;87.70
38480;DHT22;62333;51.980;5.934;2023-03-30T09:36:15;15.20;88.60
38480;DHT22;62333;51.980;5.934;2023-03-30T09:38:43;15.20;89.10
38480;DHT22;62333;51.980;5.934;2023-03-30T09:41:33;15.20;89.50
38480;DHT22;62333;51.980;5.934;2023-03-30T09:44:01;15.30;89.50
38480;DHT22;62333;51.980;5.934;2023-03-30T09:46:27;15.50;89.60
38480;DHT22;62333;51.980;5.934;2023-03-30T09:48:53;15.70;88.90
38480;DHT22;62333;51.980;5.934;2023-03-30T09:51:35;15.80;88.20
38480;DHT22;62333;51.980;5.934;2023-03-30T09:54:05;15.90;87.20
38480;DHT22;62333;51.980;5.934;2023-03-30T09:56:35;15.80;87.10
38480;DHT22;62333;51.980;5.934;2023-03-30T09:59:34;15.80;86.90
38480;DHT22;62333;51.980;5.934;2023-03-30T10:02:17;15.70;86.50
38480;DHT22;62333;51.980;5.934;2023-03-30T10:07:24;15.70;85.70
38480;DHT22;62333;51.980;5.934;2023-03-30T10:09:49;15.70;85.40
38480;DHT22;62333;51.980;5.934;2023-03-30T10:12:16;15.80;85.00
38480;DHT22;62333;51.980;5.934;2023-03-30T10:14:42;16.00;84.60
38480;DHT22;62333;51.980;5.934;2023-03-30T10:17:18;16.10;83.40
38480;DHT22;62333;51.980;5.934;2023-03-30T10:19:44;16.40;83.00
38480;DHT22;62333;51.980;5.934;2023-03-30T10:22:18;16.60;82.20
38480;DHT22;62333;51.980;5.934;2023-03-30T10:24:51;16.70;81.40
38480;DHT22;62333;51.980;5.934;2023-03-30T10:27:18;16.80;80.30
38480;DHT22;62333;51.980;5.934;2023-03-30T10:29:48;16.70;79.80
38480;DHT22;62333;51.980;5.934;2023-03-30T10:32:20;16.60;79.50
38480;DHT22;62333;51.980;5.934;2023-03-30T10:34:53;16.60;79.30
38480;DHT22;62333;51.980;5.934;2023-03-30T10:37:31;16.50;79.20
38480;DHT22;62333;51.980;5.934;2023-03-30T10:39:58;16.40;78.80
38480;DHT22;62333;51.980;5.934;2023-03-30T10:42:27;16.30;78.70
38480;DHT22;62333;51.980;5.934;2023-03-30T10:44:58;16.20;78.60
38480;DHT22;62333;51.980;5.934;2023-03-30T10:53:27;16.30;78.70
38480;DHT22;62333;51.980;5.934;2023-03-30T11:01:50;16.80;77.30
38480;DHT22;62333;51.980;5.934;2023-03-30T11:04:34;16.80;76.90
38480;DHT22;62333;51.980;5.934;2023-03-30T11:07:06;16.70;76.50
38480;DHT22;62333;51.980;5.934;2023-03-30T11:09:38;16.60;77.00
38480;DHT22;62333;51.980;5.934;2023-03-30T11:12:15;16.60;77.50
38480;DHT22;62333;51.980;5.934;2023-03-30T11:14:58;16.50;77.80
38480;DHT22;62333;51.980;5.934;2023-03-30T11:17:46;16.50;78.20
38480;DHT22;62333;51.980;5.934;2023-03-30T11:20:28;16.40;78.50
38480;DHT22;62333;51.980;5.934;2023-03-30T11:23:06;16.40;78.70
38480;DHT22;62333;51.980;5.934;2023-03-30T11:26:05;16.40;78.80
38480;DHT22;62333;51.980;5.934;2023-03-30T11:28:39;16.40;78.90
38480;DHT22;62333;51.980;5.934;2023-03-30T11:31:32;16.40;79.00
38480;DHT22;62333;51.980;5.934;2023-03-30T11:34:30;16.50;78.60
38480;DHT22;62333;51.980;5.934;2023-03-30T11:40:17;17.10;77.50
38480;DHT22;62333;51.980;5.934;2023-03-30T11:42:45;17.50;76.00
38480;DHT22;62333;51.980;5.934;2023-03-30T11:53:52;18.20;72.50
38480;DHT22;62333;51.980;5.934;2023-03-30T11:56:30;18.20;71.30
38480;DHT22;62333;51.980;5.934;2023-03-30T11:59:13;18.30;70.60
38480;DHT22;62333;51.980;5.934;2023-03-30T12:04:49;18.40;70.30
38480;DHT22;62333;51.980;5.934;2023-03-30T12:10:15;18.30;69.50
38480;DHT22;62333;51.980;5.934;2023-03-30T12:12:42;18.10;70.00
38480;DHT22;62333;51.980;5.934;2023-03-30T12:15:41;18.10;70.20
38480;DHT22;62333;51.980;5.934;2023-03-30T12:18:41;17.90;70.20
38480;DHT22;62333;51.980;5.934;2023-03-30T12:23:48;17.70;71.10
38480;DHT22;62333;51.980;5.934;2023-03-30T12:29:18;17.60;71.30
38480;DHT22;62333;51.980;5.934;2023-03-30T12:31:48;17.50;72.00
38480;DHT22;62333;51.980;5.934;2023-03-30T12:34:15;17.40;72.10
38480;DHT22;62333;51.980;5.934;2023-03-30T12:36:45;17.30;72.20
38480;DHT22;62333;51.980;5.934;2023-03-30T12:39:20;17.20;72.10
38480;DHT22;62333;51.980;5.934;2023-03-30T12:42:22;17.10;71.40
38480;DHT22;62333;51.980;5.934;2023-03-30T12:48:40;17.00;71.80
38480;DHT22;62333;51.980;5.934;2023-03-30T12:51:01;17.00;71.40
38480;DHT22;62333;51.980;5.934;2023-03-30T12:53:55;17.10;71.30
38480;DHT22;62333;51.980;5.934;2023-03-30T12:57:00;17.10;71.30
38480;DHT22;62333;51.980;5.934;2023-03-30T12:59:39;17.20;71.90
38480;DHT22;62333;51.980;5.934;2023-03-30T13:04:55;17.40;72.40
38480;DHT22;62333;51.980;5.934;2023-03-30T13:07:25;17.40;72.10
38480;DHT22;62333;51.980;5.934;2023-03-30T13:09:57;17.40;72.10
38480;DHT22;62333;51.980;5.934;2023-03-30T13:12:36;17.40;71.50
38480;DHT22;62333;51.980;5.934;2023-03-30T13:17:58;17.20;71.10
38480;DHT22;62333;51.980;5.934;2023-03-30T13:33:47;17.60;70.00
38480;DHT22;62333;51.980;5.934;2023-03-30T13:36:17;17.60;70.30
38480;DHT22;62333;51.980;5.934;2023-03-30T13:39:12;17.50;70.50
38480;DHT22;62333;51.980;5.934;2023-03-30T13:50:02;17.10;72.00
38480;DHT22;62333;51.980;5.934;2023-03-30T13:52:34;17.20;72.10
38480;DHT22;62333;51.980;5.934;2023-03-30T13:55:02;17.30;72.00
38480;DHT22;62333;51.980;5.934;2023-03-30T13:57:34;17.40;71.90
38480;DHT22;62333;51.980;5.934;2023-03-30T14:00:05;17.50;71.50
38480;DHT22;62333;51.980;5.934;2023-03-30T14:02:32;17.50;71.60
38480;DHT22;62333;51.980;5.934;2023-03-30T14:05:24;17.50;71.70
38480;DHT22;62333;51.980;5.934;2023-03-30T14:07:58;17.40;72.20
38480;DHT22;62333;51.980;5.934;2023-03-30T14:10:24;17.30;72.50
38480;DHT22;62333;51.980;5.934;2023-03-30T14:12:53;17.30;72.50
38480;DHT22;62333;51.980;5.934;2023-03-30T14:15:26;17.20;72.20
38480;DHT22;62333;51.980;5.934;2023-03-30T14:17:54;17.10;71.90
38480;DHT22;62333;51.980;5.934;2023-03-30T14:22:47;17.10;71.60
38480;DHT22;62333;51.980;5.934;2023-03-30T14:25:39;17.10;71.20
38480;DHT22;62333;51.980;5.934;2023-03-30T14:28:14;17.10;71.00
38480;DHT22;62333;51.980;5.934;2023-03-30T14:30:49;17.10;70.90
38480;DHT22;62333;51.980;5.934;2023-03-30T14:33:15;17.10;70.10
38480;DHT22;62333;51.980;5.934;2023-03-30T14:35:50;17.10;70.00
38480;DHT22;62333;51.980;5.934;2023-03-30T14:38:30;17.20;70.10
38480;DHT22;62333;51.980;5.934;2023-03-30T14:41:14;17.30;70.10
38480;DHT22;62333;51.980;5.934;2023-03-30T14:43:46;17.30;70.00
38480;DHT22;62333;51.980;5.934;2023-03-30T14:46:15;17.40;69.80
38480;DHT22;62333;51.980;5.934;2023-03-30T14:48:42;17.40;69.20
38480;DHT22;62333;51.980;5.934;2023-03-30T14:51:27;17.40;68.80
38480;DHT22;62333;51.980;5.934;2023-03-30T14:53:58;17.50;68.60
38480;DHT22;62333;51.980;5.934;2023-03-30T14:56:25;17.50;68.40
38480;DHT22;62333;51.980;5.934;2023-03-30T14:58:53;17.50;68.50
38480;DHT22;62333;51.980;5.934;2023-03-30T15:01:25;17.50;68.40
38480;DHT22;62333;51.980;5.934;2023-03-30T15:03:56;17.50;68.30
38480;DHT22;62333;51.980;5.934;2023-03-30T15:06:24;17.50;68.60
38480;DHT22;62333;51.980;5.934;2023-03-30T15:08:51;17.40;69.00
38480;DHT22;62333;51.980;5.934;2023-03-30T15:11:22;17.40;69.20
38480;DHT22;62333;51.980;5.934;2023-03-30T15:13:52;17.40;69.50
38480;DHT22;62333;51.980;5.934;2023-03-30T15:16:31;17.40;69.60
38480;DHT22;62333;51.980;5.934;2023-03-30T15:19:04;17.40;68.90
38480;DHT22;62333;51.980;5.934;2023-03-30T15:21:33;17.30;69.20
38480;DHT22;62333;51.980;5.934;2023-03-30T15:24:00;17.30;69.40
38480;DHT22;62333;51.980;5.934;2023-03-30T15:26:26;17.30;69.60
38480;DHT22;62333;51.980;5.934;2023-03-30T15:28:55;17.30;69.60
38480;DHT22;62333;51.980;5.934;2023-03-30T15:31:22;17.30;69.70
38480;DHT22;62333;51.980;5.934;2023-03-30T15:36:19;17.30;69.80
38480;DHT22;62333;51.980;5.934;2023-03-30T15:38:48;17.20;69.70
38480;DHT22;62333;51.980;5.934;2023-03-30T15:41:15;17.20;70.10
38480;DHT22;62333;51.980;5.934;2023-03-30T15:44:07;17.20;70.70
38480;DHT22;62333;51.980;5.934;2023-03-30T15:46:34;17.30;71.50
38480;DHT22;62333;51.980;5.934;2023-03-30T15:49:01;17.30;71.40
38480;DHT22;62333;51.980;5.934;2023-03-30T15:52:00;17.20;71.30
38480;DHT22;62333;51.980;5.934;2023-03-30T15:54:31;17.10;71.50
38480;DHT22;62333;51.980;5.934;2023-03-30T15:59:43;17.10;72.20
38480;DHT22;62333;51.980;5.934;2023-03-30T16:02:17;17.10;72.20
38480;DHT22;62333;51.980;5.934;2023-03-30T16:04:43;17.00;71.80
38480;DHT22;62333;51.980;5.934;2023-03-30T16:07:16;17.00;71.70
38480;DHT22;62333;51.980;5.934;2023-03-30T16:09:42;17.00;71.50
38480;DHT22;62333;51.980;5.934;2023-03-30T16:12:16;16.90;71.50
38480;DHT22;62333;51.980;5.934;2023-03-30T16:14:42;16.90;71.40
38480;DHT22;62333;51.980;5.934;2023-03-30T16:17:09;16.90;71.40
38480;DHT22;62333;51.980;5.934;2023-03-30T16:19:38;16.90;71.60
38480;DHT22;62333;51.980;5.934;2023-03-30T16:22:04;16.90;71.70
38480;DHT22;62333;51.980;5.934;2023-03-30T16:24:30;16.80;71.80
38480;DHT22;62333;51.980;5.934;2023-03-30T16:26:55;16.80;71.80
38480;DHT22;62333;51.980;5.934;2023-03-30T16:29:22;16.80;71.80
38480;DHT22;62333;51.980;5.934;2023-03-30T16:31:49;16.80;72.00
38480;DHT22;62333;51.980;5.934;2023-03-30T16:34:15;16.80;72.20
38480;DHT22;62333;51.980;5.934;2023-03-30T16:36:41;16.80;72.40
38480;DHT22;62333;51.980;5.934;2023-03-30T16:39:17;16.70;72.50
38480;DHT22;62333;51.980;5.934;2023-03-30T16:41:43;16.70;72.70
38480;DHT22;62333;51.980;5.934;2023-03-30T16:44:09;16.70;72.80
38480;DHT22;62333;51.980;5.934;2023-03-30T16:46:35;16.70;72.60
38480;DHT22;62333;51.980;5.934;2023-03-30T16:49:02;16.60;72.50
38480;DHT22;62333;51.980;5.934;2023-03-30T16:51:28;16.60;72.30
38480;DHT22;62333;51.980;5.934;2023-03-30T16:53:53;16.50;72.40
38480;DHT22;62333;51.980;5.934;2023-03-30T16:56:19;16.50;72.50
38480;DHT22;62333;51.980;5.934;2023-03-30T16:58:46;16.50;72.60
38480;DHT22;62333;51.980;5.934;2023-03-30T17:01:13;16.50;72.80
38480;DHT22;62333;51.980;5.934;2023-03-30T17:03:43;16.40;73.10
38480;DHT22;62333;51.980;5.934;2023-03-30T17:06:08;16.40;73.30
38480;DHT22;62333;51.980;5.934;2023-03-30T17:08:34;16.30;73.30
38480;DHT22;62333;51.980;5.934;2023-03-30T17:11:01;16.30;73.40
38480;DHT22;62333;51.980;5.934;2023-03-30T17:13:32;16.30;73.30
38480;DHT22;62333;51.980;5.934;2023-03-30T17:15:58;16.30;73.50
38480;DHT22;62333;51.980;5.934;2023-03-30T17:18:25;16.30;73.60
38480;DHT22;62333;51.980;5.934;2023-03-30T17:20:54;16.30;73.70
38480;DHT22;62333;51.980;5.934;2023-03-30T17:23:22;16.30;73.90
38480;DHT22;62333;51.980;5.934;2023-03-30T17:25:48;16.30;74.20
38480;DHT22;62333;51.980;5.934;2023-03-30T17:28:28;16.30;74.50
38480;DHT22;62333;51.980;5.934;2023-03-30T17:30:58;16.30;74.60
38480;DHT22;62333;51.980;5.934;2023-03-30T17:33:24;16.30;74.80
38480;DHT22;62333;51.980;5.934;2023-03-30T17:35:55;16.30;74.90
38480;DHT22;62333;51.980;5.934;2023-03-30T17:38:21;16.30;75.00
38480;DHT22;62333;51.980;5.934;2023-03-30T17:40:47;16.30;75.10
38480;DHT22;62333;51.980;5.934;2023-03-30T17:43:13;16.30;75.20
38480;DHT22;62333;51.980;5.934;2023-03-30T17:45:40;16.40;75.40
38480;DHT22;62333;51.980;5.934;2023-03-30T17:48:18;16.40;75.50
38480;DHT22;62333;51.980;5.934;2023-03-30T17:50:46;16.30;75.70
38480;DHT22;62333;51.980;5.934;2023-03-30T17:53:13;16.30;75.90
38480;DHT22;62333;51.980;5.934;2023-03-30T17:55:45;16.30;76.10
38480;DHT22;62333;51.980;5.934;2023-03-30T17:58:18;16.20;76.20